sensor_id;sensor_type;location;lat;lon;timestamp;temperature;humidity
42663;DHT22;44330;51.360;6.686;2023-02-14T00:02:22;4.80;75.30
42663;DHT22;44330;51.360;6.686;2023-02-14T00:20:01;4.60;79.20
42663;DHT22;44330;51.360;6.686;2023-02-14T00:35:06;4.50;77.90
42663;DHT22;44330;51.360;6.686;2023-02-14T00:38:35;4.50;78.40
42663;DHT22;44330;51.360;6.686;2023-02-14T00:48:50;4.40;81.00
42663;DHT22;44330;51.360;6.686;2023-02-14T00:57:14;4.40;80.40
42663;DHT22;44330;51.360;6.686;2023-02-14T01:00:11;4.30;80.60
42663;DHT22;44330;51.360;6.686;2023-02-14T01:07:42;4.40;80.50
42663;DHT22;44330;51.360;6.686;2023-02-14T03:35:02;3.50;87.80
42663;DHT22;44330;51.360;6.686;2023-02-14T03:41:00;3.50;88.20
42663;DHT22;44330;51.360;6.686;2023-02-14T03:43:39;3.50;88.30
42663;DHT22;44330;51.360;6.686;2023-02-14T03:46:47;3.40;88.20
42663;DHT22;44330;51.360;6.686;2023-02-14T03:49:48;3.40;88.30
42663;DHT22;44330;51.360;6.686;2023-02-14T03:52:24;3.30;88.50
42663;DHT22;44330;51.360;6.686;2023-02-14T03:54:57;3.40;88.90
42663;DHT22;44330;51.360;6.686;2023-02-14T03:57:29;3.50;89.10
42663;DHT22;44330;51.360;6.686;2023-02-14T03:59:57;3.40;89.10
42663;DHT22;44330;51.360;6.686;2023-02-14T04:02:28;3.30;89.20
42663;DHT22;44330;51.360;6.686;2023-02-14T04:04:57;3.30;89.40
42663;DHT22;44330;51.360;6.686;2023-02-14T04:07:24;3.30;89.60
42663;DHT22;44330;51.360;6.686;2023-02-14T04:09:53;3.40;89.90
42663;DHT22;44330;51.360;6.686;2023-02-14T04:12:24;3.40;90.30
42663;DHT22;44330;51.360;6.686;2023-02-14T04:14:52;3.40;90.00
42663;DHT22;44330;51.360;6.686;2023-02-14T04:17:17;3.40;90.10
42663;DHT22;44330;51.360;6.686;2023-02-14T04:20:01;3.40;90.10
42663;DHT22;44330;51.360;6.686;2023-02-14T04:22:29;3.40;90.20
42663;DHT22;44330;51.360;6.686;2023-02-14T04:24:55;3.40;90.20
42663;DHT22;44330;51.360;6.686;2023-02-14T04:27:20;3.40;90.20
42663;DHT22;44330;51.360;6.686;2023-02-14T04:29:47;3.40;90.10
42663;DHT22;44330;51.360;6.686;2023-02-14T04:32:17;3.30;90.30
42663;DHT22;44330;51.360;6.686;2023-02-14T04:34:43;3.40;90.40
42663;DHT22;44330;51.360;6.686;2023-02-14T04:37:10;3.30;90.40
42663;DHT22;44330;51.360;6.686;2023-02-14T04:39:35;3.30;90.60
42663;DHT22;44330;51.360;6.686;2023-02-14T04:42:01;3.30;90.50
42663;DHT22;44330;51.360;6.686;2023-02-14T04:44:27;3.30;90.50
42663;DHT22;44330;51.360;6.686;2023-02-14T04:46:53;3.30;90.40
42663;DHT22;44330;51.360;6.686;2023-02-14T04:49:19;3.20;90.40
42663;DHT22;44330;51.360;6.686;2023-02-14T04:51:45;3.30;90.40
42663;DHT22;44330;51.360;6.686;2023-02-14T04:54:10;3.20;90.50
42663;DHT22;44330;51.360;6.686;2023-02-14T04:56:36;3.20;90.50
42663;DHT22;44330;51.360;6.686;2023-02-14T04:59:04;3.20;90.50
42663;DHT22;44330;51.360;6.686;2023-02-14T05:01:30;3.10;90.50
42663;DHT22;44330;51.360;6.686;2023-02-14T05:03:56;3.10;90.50
42663;DHT22;44330;51.360;6.686;2023-02-14T05:06:22;3.10;90.60
42663;DHT22;44330;51.360;6.686;2023-02-14T05:08:50;3.00;90.60
42663;DHT22;44330;51.360;6.686;2023-02-14T05:11:16;3.10;90.70
42663;DHT22;44330;51.360;6.686;2023-02-14T05:13:41;3.10;90.90
42663;DHT22;44330;51.360;6.686;2023-02-14T05:16:07;3.10;91.00
42663;DHT22;44330;51.360;6.686;2023-02-14T05:18:35;3.20;90.90
42663;DHT22;44330;51.360;6.686;2023-02-14T05:21:00;3.20;91.00
42663;DHT22;44330;51.360;6.686;2023-02-14T05:23:28;3.30;91.10
42663;DHT22;44330;51.360;6.686;2023-02-14T05:25:54;3.30;91.10
42663;DHT22;44330;51.360;6.686;2023-02-14T05:28:19;3.30;91.10
42663;DHT22;44330;51.360;6.686;2023-02-14T05:30:49;3.30;91.00
42663;DHT22;44330;51.360;6.686;2023-02-14T05:33:15;3.30;91.10
42663;DHT22;44330;51.360;6.686;2023-02-14T05:35:41;3.20;91.00
42663;DHT22;44330;51.360;6.686;2023-02-14T05:38:06;3.30;91.00
42663;DHT22;44330;51.360;6.686;2023-02-14T05:40:32;3.20;91.00
42663;DHT22;44330;51.360;6.686;2023-02-14T05:42:58;3.20;91.10
42663;DHT22;44330;51.360;6.686;2023-02-14T05:45:24;3.20;91.10
42663;DHT22;44330;51.360;6.686;2023-02-14T05:47:50;3.20;91.10
42663;DHT22;44330;51.360;6.686;2023-02-14T05:50:17;3.20;91.10
42663;DHT22;44330;51.360;6.686;2023-02-14T05:52:43;3.20;91.20
42663;DHT22;44330;51.360;6.686;2023-02-14T05:55:09;3.20;91.20
42663;DHT22;44330;51.360;6.686;2023-02-14T05:57:35;3.20;91.10
42663;DHT22;44330;51.360;6.686;2023-02-14T06:00:01;3.20;91.20
42663;DHT22;44330;51.360;6.686;2023-02-14T06:02:50;3.20;91.10
42663;DHT22;44330;51.360;6.686;2023-02-14T06:05:21;3.20;91.20
42663;DHT22;44330;51.360;6.686;2023-02-14T06:08:07;3.20;91.30
42663;DHT22;44330;51.360;6.686;2023-02-14T06:10:32;3.20;91.20
42663;DHT22;44330;51.360;6.686;2023-02-14T06:13:36;3.30;91.30
42663;DHT22;44330;51.360;6.686;2023-02-14T06:16:14;3.40;91.50
42663;DHT22;44330;51.360;6.686;2023-02-14T06:18:52;3.40;91.50
42663;DHT22;44330;51.360;6.686;2023-02-14T06:24:47;3.50;91.40
42663;DHT22;44330;51.360;6.686;2023-02-14T06:27:18;3.40;91.20
42663;DHT22;44330;51.360;6.686;2023-02-14T06:30:11;3.40;91.10
42663;DHT22;44330;51.360;6.686;2023-02-14T06:33:23;3.30;91.10
42663;DHT22;44330;51.360;6.686;2023-02-14T06:35:57;3.30;91.00
42663;DHT22;44330;51.360;6.686;2023-02-14T06:38:22;3.30;91.00
42663;DHT22;44330;51.360;6.686;2023-02-14T06:43:55;3.20;91.10
42663;DHT22;44330;51.360;6.686;2023-02-14T06:46:22;3.20;91.10
42663;DHT22;44330;51.360;6.686;2023-02-14T06:49:06;3.10;91.10
42663;DHT22;44330;51.360;6.686;2023-02-14T06:51:32;3.20;91.30
42663;DHT22;44330;51.360;6.686;2023-02-14T06:54:00;3.10;91.40
42663;DHT22;44330;51.360;6.686;2023-02-14T06:56:25;3.10;91.30
42663;DHT22;44330;51.360;6.686;2023-02-14T06:58:51;3.00;91.40
42663;DHT22;44330;51.360;6.686;2023-02-14T07:01:16;3.00;91.40
42663;DHT22;44330;51.360;6.686;2023-02-14T07:03:42;3.00;91.40
42663;DHT22;44330;51.360;6.686;2023-02-14T07:06:08;3.00;91.50
42663;DHT22;44330;51.360;6.686;2023-02-14T07:08:36;3.00;91.50
42663;DHT22;44330;51.360;6.686;2023-02-14T07:11:18;3.00;91.50
42663;DHT22;44330;51.360;6.686;2023-02-14T07:13:44;3.00;91.60
42663;DHT22;44330;51.360;6.686;2023-02-14T07:16:10;3.00;91.70
42663;DHT22;44330;51.360;6.686;2023-02-14T07:18:38;3.00;91.80
42663;DHT22;44330;51.360;6.686;2023-02-14T07:21:04;3.00;91.80
42663;DHT22;44330;51.360;6.686;2023-02-14T07:23:32;3.10;91.80
42663;DHT22;44330;51.360;6.686;2023-02-14T07:29:26;3.20;92.00
42663;DHT22;44330;51.360;6.686;2023-02-14T08:10:01;4.20;90.90
42663;DHT22;44330;51.360;6.686;2023-02-14T08:22:28;4.60;90.50
42663;DHT22;44330;51.360;6.686;2023-02-14T08:24:53;4.70;89.90
42663;DHT22;44330;51.360;6.686;2023-02-14T08:27:19;4.80;88.80
42663;DHT22;44330;51.360;6.686;2023-02-14T08:29:44;4.90;87.70
42663;DHT22;44330;51.360;6.686;2023-02-14T08:32:10;5.00;87.10
42663;DHT22;44330;51.360;6.686;2023-02-14T08:34:35;5.10;86.80
42663;DHT22;44330;51.360;6.686;2023-02-14T08:37:01;5.20;86.00
42663;DHT22;44330;51.360;6.686;2023-02-14T08:39:26;5.30;85.10
42663;DHT22;44330;51.360;6.686;2023-02-14T08:41:52;5.40;84.00
42663;DHT22;44330;51.360;6.686;2023-02-14T08:44:17;5.50;83.20
42663;DHT22;44330;51.360;6.686;2023-02-14T08:46:43;5.60;82.10
42663;DHT22;44330;51.360;6.686;2023-02-14T08:49:09;5.70;81.00
42663;DHT22;44330;51.360;6.686;2023-02-14T08:51:35;5.80;81.00
42663;DHT22;44330;51.360;6.686;2023-02-14T08:54:00;6.00;80.00
42663;DHT22;44330;51.360;6.686;2023-02-14T08:56:29;6.20;80.10
42663;DHT22;44330;51.360;6.686;2023-02-14T08:58:54;6.30;78.20
42663;DHT22;44330;51.360;6.686;2023-02-14T09:01:20;6.50;76.40
42663;DHT22;44330;51.360;6.686;2023-02-14T09:03:46;6.70;72.30
42663;DHT22;44330;51.360;6.686;2023-02-14T09:06:13;7.00;71.80
42663;DHT22;44330;51.360;6.686;2023-02-14T09:08:41;7.30;66.70
42663;DHT22;44330;51.360;6.686;2023-02-14T09:11:16;7.60;61.20
42663;DHT22;44330;51.360;6.686;2023-02-14T09:13:43;7.80;59.60
42663;DHT22;44330;51.360;6.686;2023-02-14T09:16:10;8.10;56.70
42663;DHT22;44330;51.360;6.686;2023-02-14T09:18:39;8.30;46.70
42663;DHT22;44330;51.360;6.686;2023-02-14T09:21:10;8.60;40.50
42663;DHT22;44330;51.360;6.686;2023-02-14T09:23:38;8.80;35.60
42663;DHT22;44330;51.360;6.686;2023-02-14T09:26:06;9.00;25.00
42663;DHT22;44330;51.360;6.686;2023-02-14T09:28:33;9.20;1.00
42663;DHT22;44330;51.360;6.686;2023-02-14T09:31:11;9.40;1.00
42663;DHT22;44330;51.360;6.686;2023-02-14T09:33:42;9.60;1.00
42663;DHT22;44330;51.360;6.686;2023-02-14T09:36:35;9.80;1.00
42663;DHT22;44330;51.360;6.686;2023-02-14T09:39:19;9.90;1.00
42663;DHT22;44330;51.360;6.686;2023-02-14T09:44:48;10.30;23.80
42663;DHT22;44330;51.360;6.686;2023-02-14T09:47:37;10.50;99.90
42663;DHT22;44330;51.360;6.686;2023-02-14T09:50:09;10.60;1.00
42663;DHT22;44330;51.360;6.686;2023-02-14T09:52:36;10.70;1.00
42663;DHT22;44330;51.360;6.686;2023-02-14T09:55:02;10.90;99.90
42663;DHT22;44330;51.360;6.686;2023-02-14T09:57:35;11.10;1.00
42663;DHT22;44330;51.360;6.686;2023-02-14T10:00:26;11.30;99.90
42663;DHT22;44330;51.360;6.686;2023-02-14T10:05:59;11.50;99.90
42663;DHT22;44330;51.360;6.686;2023-02-14T10:11:07;11.70;99.90
42663;DHT22;44330;51.360;6.686;2023-02-14T10:13:52;11.80;1.00
42663;DHT22;44330;51.360;6.686;2023-02-14T10:16:26;11.80;1.00
42663;DHT22;44330;51.360;6.686;2023-02-14T10:19:01;11.90;99.90
42663;DHT22;44330;51.360;6.686;2023-02-14T10:21:38;12.00;99.90
42663;DHT22;44330;51.360;6.686;2023-02-14T10:24:17;12.20;99.90
42663;DHT22;44330;51.360;6.686;2023-02-14T10:26:43;12.40;99.90
42663;DHT22;44330;51.360;6.686;2023-02-14T10:29:17;12.50;56.20
42663;DHT22;44330;51.360;6.686;2023-02-14T10:31:57;12.70;1.00
42663;DHT22;44330;51.360;6.686;2023-02-14T10:42:52;13.30;99.90
42663;DHT22;44330;51.360;6.686;2023-02-14T10:45:40;13.40;9.80
42663;DHT22;44330;51.360;6.686;2023-02-14T10:50:51;13.50;99.90
42663;DHT22;44330;51.360;6.686;2023-02-14T10:56:25;13.70;99.90
42663;DHT22;44330;51.360;6.686;2023-02-14T10:58:53;13.80;99.90
42663;DHT22;44330;51.360;6.686;2023-02-14T11:01:21;14.00;99.90
42663;DHT22;44330;51.360;6.686;2023-02-14T11:03:54;14.10;99.90
42663;DHT22;44330;51.360;6.686;2023-02-14T11:06:20;14.30;99.90
42663;DHT22;44330;51.360;6.686;2023-02-14T11:08:46;14.50;94.00
42663;DHT22;44330;51.360;6.686;2023-02-14T11:11:35;14.50;1.00
42663;DHT22;44330;51.360;6.686;2023-02-14T11:16:51;14.50;1.00
42663;DHT22;44330;51.360;6.686;2023-02-14T11:19:19;14.60;1.00
42663;DHT22;44330;51.360;6.686;2023-02-14T11:21:46;14.70;99.90
42663;DHT22;44330;51.360;6.686;2023-02-14T11:26:50;14.80;99.90
42663;DHT22;44330;51.360;6.686;2023-02-14T11:31:52;15.00;99.90
42663;DHT22;44330;51.360;6.686;2023-02-14T11:34:29;15.10;99.90
42663;DHT22;44330;51.360;6.686;2023-02-14T11:36:55;15.00;99.90
42663;DHT22;44330;51.360;6.686;2023-02-14T11:41:57;15.00;66.90
42663;DHT22;44330;51.360;6.686;2023-02-14T11:44:25;14.90;60.90
42663;DHT22;44330;51.360;6.686;2023-02-14T11:46:52;14.90;58.60
42663;DHT22;44330;51.360;6.686;2023-02-14T11:50:01;15.10;49.40
42663;DHT22;44330;51.360;6.686;2023-02-14T11:52:27;15.00;1.00
42663;DHT22;44330;51.360;6.686;2023-02-14T11:54:55;15.00;1.00
42663;DHT22;44330;51.360;6.686;2023-02-14T11:57:28;14.90;23.70
42663;DHT22;44330;51.360;6.686;2023-02-14T12:00:00;14.90;11.90
42663;DHT22;44330;51.360;6.686;2023-02-14T12:02:45;15.00;27.40
42663;DHT22;44330;51.360;6.686;2023-02-14T12:07:47;15.00;1.00
42663;DHT22;44330;51.360;6.686;2023-02-14T12:17:52;14.80;1.00
42663;DHT22;44330;51.360;6.686;2023-02-14T12:20:44;14.90;1.00
42663;DHT22;44330;51.360;6.686;2023-02-14T12:26:08;15.00;1.00
42663;DHT22;44330;51.360;6.686;2023-02-14T12:28:44;15.00;99.90
42663;DHT22;44330;51.360;6.686;2023-02-14T12:31:12;14.90;1.00
42663;DHT22;44330;51.360;6.686;2023-02-14T12:33:38;14.90;99.90
42663;DHT22;44330;51.360;6.686;2023-02-14T12:45:08;14.90;99.90
42663;DHT22;44330;51.360;6.686;2023-02-14T12:50:35;14.90;99.90
42663;DHT22;44330;51.360;6.686;2023-02-14T12:53:29;14.80;99.90
42663;DHT22;44330;51.360;6.686;2023-02-14T12:56:15;14.60;99.90
42663;DHT22;44330;51.360;6.686;2023-02-14T12:59:07;14.60;99.90
42663;DHT22;44330;51.360;6.686;2023-02-14T13:04:57;14.60;99.90
42663;DHT22;44330;51.360;6.686;2023-02-14T13:07:50;14.60;99.90
42663;DHT22;44330;51.360;6.686;2023-02-14T13:19:01;14.50;99.90
42663;DHT22;44330;51.360;6.686;2023-02-14T13:21:33;14.50;99.90
42663;DHT22;44330;51.360;6.686;2023-02-14T13:24:38;14.60;99.90
42663;DHT22;44330;51.360;6.686;2023-02-14T13:27:06;14.50;99.90
42663;DHT22;44330;51.360;6.686;2023-02-14T13:29:54;14.40;99.90
42663;DHT22;44330;51.360;6.686;2023-02-14T13:32:26;14.60;99.90
42663;DHT22;44330;51.360;6.686;2023-02-14T13:34:53;14.60;99.90
42663;DHT22;44330;51.360;6.686;2023-02-14T13:37:21;14.70;99.90
42663;DHT22;44330;51.360;6.686;2023-02-14T13:39:53;14.70;99.90
42663;DHT22;44330;51.360;6.686;2023-02-14T13:48:11;14.80;99.90
42663;DHT22;44330;51.360;6.686;2023-02-14T13:50:48;14.80;99.90
42663;DHT22;44330;51.360;6.686;2023-02-14T13:58:53;14.90;99.90
42663;DHT22;44330;51.360;6.686;2023-02-14T14:04:01;14.80;99.90
42663;DHT22;44330;51.360;6.686;2023-02-14T14:06:27;14.90;99.90
42663;DHT22;44330;51.360;6.686;2023-02-14T14:08:54;14.90;99.90
42663;DHT22;44330;51.360;6.686;2023-02-14T14:19:09;14.90;99.90
42663;DHT22;44330;51.360;6.686;2023-02-14T14:22:04;14.90;99.90
42663;DHT22;44330;51.360;6.686;2023-02-14T14:24:38;14.90;99.90
42663;DHT22;44330;51.360;6.686;2023-02-14T14:29:53;14.90;99.90
42663;DHT22;44330;51.360;6.686;2023-02-14T14:32:29;14.90;99.90
42663;DHT22;44330;51.360;6.686;2023-02-14T14:35:01;15.00;99.90
42663;DHT22;44330;51.360;6.686;2023-02-14T14:37:46;14.90;99.90
42663;DHT22;44330;51.360;6.686;2023-02-14T14:40:27;15.00;99.90
42663;DHT22;44330;51.360;6.686;2023-02-14T14:42:58;15.00;99.90
42663;DHT22;44330;51.360;6.686;2023-02-14T14:45:27;15.10;99.90
42663;DHT22;44330;51.360;6.686;2023-02-14T14:47:55;15.10;99.90
42663;DHT22;44330;51.360;6.686;2023-02-14T14:50:26;15.10;99.90
42663;DHT22;44330;51.360;6.686;2023-02-14T14:53:02;15.00;99.90
42663;DHT22;44330;51.360;6.686;2023-02-14T14:55:31;15.00;99.90
42663;DHT22;44330;51.360;6.686;2023-02-14T14:58:00;15.00;99.90
42663;DHT22;44330;51.360;6.686;2023-02-14T15:00:33;14.90;99.90
42663;DHT22;44330;51.360;6.686;2023-02-14T15:03:06;15.00;99.90
42663;DHT22;44330;51.360;6.686;2023-02-14T15:05:42;14.90;99.90
42663;DHT22;44330;51.360;6.686;2023-02-14T15:16:39;14.90;99.90
42663;DHT22;44330;51.360;6.686;2023-02-14T15:19:11;14.80;99.90
42663;DHT22;44330;51.360;6.686;2023-02-14T15:21:41;14.80;99.90
42663;DHT22;44330;51.360;6.686;2023-02-14T15:24:12;14.70;99.90
42663;DHT22;44330;51.360;6.686;2023-02-14T15:26:38;14.70;99.90
42663;DHT22;44330;51.360;6.686;2023-02-14T15:29:06;14.70;99.90
42663;DHT22;44330;51.360;6.686;2023-02-14T15:31:38;14.60;99.90
42663;DHT22;44330;51.360;6.686;2023-02-14T15:34:05;14.60;99.90
42663;DHT22;44330;51.360;6.686;2023-02-14T15:36:33;14.50;99.90
42663;DHT22;44330;51.360;6.686;2023-02-14T15:39:02;14.50;99.90
42663;DHT22;44330;51.360;6.686;2023-02-14T15:41:27;14.40;99.90
42663;DHT22;44330;51.360;6.686;2023-02-14T15:43:55;14.40;99.90
42663;DHT22;44330;51.360;6.686;2023-02-14T15:48:54;14.30;99.90
42663;DHT22;44330;51.360;6.686;2023-02-14T15:51:26;14.20;99.90
42663;DHT22;44330;51.360;6.686;2023-02-14T15:53:59;14.10;99.90
42663;DHT22;44330;51.360;6.686;2023-02-14T15:56:29;14.00;99.90
42663;DHT22;44330;51.360;6.686;2023-02-14T15:59:05;13.90;99.90
42663;DHT22;44330;51.360;6.686;2023-02-14T16:01:33;13.80;99.90
42663;DHT22;44330;51.360;6.686;2023-02-14T16:04:02;13.60;99.90
42663;DHT22;44330;51.360;6.686;2023-02-14T16:06:32;13.50;99.90
42663;DHT22;44330;51.360;6.686;2023-02-14T16:08:57;13.50;99.90
42663;DHT22;44330;51.360;6.686;2023-02-14T16:11:33;13.40;99.90
42663;DHT22;44330;51.360;6.686;2023-02-14T16:14:19;13.30;99.90
42663;DHT22;44330;51.360;6.686;2023-02-14T16:19:51;13.10;99.90
42663;DHT22;44330;51.360;6.686;2023-02-14T16:22:27;13.00;99.90
42663;DHT22;44330;51.360;6.686;2023-02-14T16:24:57;12.90;1.00
42663;DHT22;44330;51.360;6.686;2023-02-14T16:27:23;12.80;1.00
42663;DHT22;44330;51.360;6.686;2023-02-14T16:29:48;12.70;1.00
42663;DHT22;44330;51.360;6.686;2023-02-14T16:32:22;12.50;1.00
42663;DHT22;44330;51.360;6.686;2023-02-14T16:34:48;12.40;1.00
42663;DHT22;44330;51.360;6.686;2023-02-14T16:37:22;12.20;32.60
42663;DHT22;44330;51.360;6.686;2023-02-14T16:39:49;12.00;99.50
42663;DHT22;44330;51.360;6.686;2023-02-14T16:42:16;11.90;99.90
42663;DHT22;44330;51.360;6.686;2023-02-14T16:44:43;11.70;99.90
42663;DHT22;44330;51.360;6.686;2023-02-14T16:47:13;11.60;99.90
42663;DHT22;44330;51.360;6.686;2023-02-14T16:49:39;11.40;99.90
42663;DHT22;44330;51.360;6.686;2023-02-14T16:52:08;11.20;99.90
42663;DHT22;44330;51.360;6.686;2023-02-14T16:54:34;11.10;1.00
42663;DHT22;44330;51.360;6.686;2023-02-14T16:57:02;10.90;28.00
42663;DHT22;44330;51.360;6.686;2023-02-14T16:59:28;10.80;99.90
42663;DHT22;44330;51.360;6.686;2023-02-14T17:01:53;10.60;99.90
42663;DHT22;44330;51.360;6.686;2023-02-14T17:04:19;10.50;1.00
42663;DHT22;44330;51.360;6.686;2023-02-14T17:06:50;10.30;99.90
42663;DHT22;44330;51.360;6.686;2023-02-14T17:09:19;10.20;99.90
42663;DHT22;44330;51.360;6.686;2023-02-14T17:11:46;10.10;1.00
42663;DHT22;44330;51.360;6.686;2023-02-14T17:14:17;10.00;99.90
42663;DHT22;44330;51.360;6.686;2023-02-14T17:16:44;9.90;99.90
42663;DHT22;44330;51.360;6.686;2023-02-14T17:19:10;9.70;99.90
42663;DHT22;44330;51.360;6.686;2023-02-14T17:21:36;9.60;1.00
42663;DHT22;44330;51.360;6.686;2023-02-14T17:24:02;9.50;99.90
42663;DHT22;44330;51.360;6.686;2023-02-14T17:26:28;9.40;99.90
42663;DHT22;44330;51.360;6.686;2023-02-14T17:28:54;9.30;58.00
42663;DHT22;44330;51.360;6.686;2023-02-14T17:31:19;9.10;99.90
42663;DHT22;44330;51.360;6.686;2023-02-14T17:33:45;9.10;1.00
42663;DHT22;44330;51.360;6.686;2023-02-14T17:36:12;9.00;99.90
42663;DHT22;44330;51.360;6.686;2023-02-14T17:38:39;8.90;99.90
42663;DHT22;44330;51.360;6.686;2023-02-14T17:41:12;8.80;32.50
42663;DHT22;44330;51.360;6.686;2023-02-14T17:43:38;8.70;99.90
42663;DHT22;44330;51.360;6.686;2023-02-14T17:46:04;8.60;99.90
42663;DHT22;44330;51.360;6.686;2023-02-14T17:48:30;8.50;99.90
42663;DHT22;44330;51.360;6.686;2023-02-14T17:50:55;8.40;1.00
42663;DHT22;44330;51.360;6.686;2023-02-14T17:53:21;8.30;57.70
42663;DHT22;44330;51.360;6.686;2023-02-14T17:55:46;8.30;99.90
42663;DHT22;44330;51.360;6.686;2023-02-14T17:58:12;8.20;99.90
42663;DHT22;44330;51.360;6.686;2023-02-14T18:00:38;8.10;99.90
42663;DHT22;44330;51.360;6.686;2023-02-14T18:03:03;8.00;99.90
42663;DHT22;44330;51.360;6.686;2023-02-14T18:05:29;8.00;99.90
42663;DHT22;44330;51.360;6.686;2023-02-14T18:07:54;7.90;99.90
42663;DHT22;44330;51.360;6.686;2023-02-14T18:10:20;7.80;99.90
42663;DHT22;44330;51.360;6.686;2023-02-14T18:12:45;7.70;99.90
42663;DHT22;44330;51.360;6.686;2023-02-14T18:15:11;7.80;99.90
42663;DHT22;44330;51.360;6.686;2023-02-14T18:17:36;7.60;99.90
42663;DHT22;44330;51.360;6.686;2023-02-14T18:20:02;7.60;99.90
42663;DHT22;44330;51.360;6.686;2023-02-14T18:22:30;7.50;1.00
42663;DHT22;44330;51.360;6.686;2023-02-14T18:24:55;7.40;1.00
42663;DHT22;44330;51.360;6.686;2023-02-14T18:27:23;7.40;1.00
42663;DHT22;44330;51.360;6.686;2023-02-14T18:29:49;7.40;1.00
42663;DHT22;44330;51.360;6.686;2023-02-14T18:32:15;7.30;1.00
42663;DHT22;44330;51.360;6.686;2023-02-14T18:34:40;7.20;1.00
42663;DHT22;44330;51.360;6.686;2023-02-14T18:37:06;7.30;1.00
42663;DHT22;44330;51.360;6.686;2023-02-14T18:39:32;7.10;1.00
42663;DHT22;44330;51.360;6.686;2023-02-14T18:41:58;7.10;1.00
42663;DHT22;44330;51.360;6.686;2023-02-14T18:44:28;7.00;1.00
42663;DHT22;44330;51.360;6.686;2023-02-14T18:46:53;6.90;1.00
42663;DHT22;44330;51.360;6.686;2023-02-14T18:49:19;6.80;1.00
42663;DHT22;44330;51.360;6.686;2023-02-14T18:51:45;6.80;1.00
42663;DHT22;44330;51.360;6.686;2023-02-14T18:54:10;6.70;1.00
42663;DHT22;44330;51.360;6.686;2023-02-14T18:56:37;6.70;1.00
42663;DHT22;44330;51.360;6.686;2023-02-14T18:59:05;6.70;1.50
42663;DHT22;44330;51.360;6.686;2023-02-14T19:01:34;6.70;7.90
42663;DHT22;44330;51.360;6.686;2023-02-14T19:04:04;6.60;9.40
42663;DHT22;44330;51.360;6.686;2023-02-14T19:06:32;6.60;10.40
42663;DHT22;44330;51.360;6.686;2023-02-14T19:08:58;6.50;11.70
42663;DHT22;44330;51.360;6.686;2023-02-14T19:11:27;6.50;13.40
42663;DHT22;44330;51.360;6.686;2023-02-14T19:13:56;6.40;15.70
42663;DHT22;44330;51.360;6.686;2023-02-14T19:16:25;6.30;18.10
42663;DHT22;44330;51.360;6.686;2023-02-14T19:18:51;6.30;19.40
42663;DHT22;44330;51.360;6.686;2023-02-14T19:21:23;6.20;20.90
42663;DHT22;44330;51.360;6.686;2023-02-14T19:23:50;6.20;22.70
42663;DHT22;44330;51.360;6.686;2023-02-14T19:26:22;6.10;23.60
42663;DHT22;44330;51.360;6.686;2023-02-14T19:28:52;6.10;25.50
42663;DHT22;44330;51.360;6.686;2023-02-14T19:31:18;6.10;26.60
42663;DHT22;44330;51.360;6.686;2023-02-14T19:33:45;6.00;27.50
42663;DHT22;44330;51.360;6.686;2023-02-14T19:36:13;6.00;28.10
42663;DHT22;44330;51.360;6.686;2023-02-14T19:38:41;6.00;29.20
42663;DHT22;44330;51.360;6.686;2023-02-14T19:41:27;5.90;29.20
42663;DHT22;44330;51.360;6.686;2023-02-14T19:43:56;5.90;34.10
42663;DHT22;44330;51.360;6.686;2023-02-14T19:46:23;5.90;34.70
42663;DHT22;44330;51.360;6.686;2023-02-14T19:48:49;5.80;35.80
42663;DHT22;44330;51.360;6.686;2023-02-14T19:51:27;5.70;36.30
42663;DHT22;44330;51.360;6.686;2023-02-14T19:53:58;5.70;38.30
42663;DHT22;44330;51.360;6.686;2023-02-14T19:56:28;5.70;41.40
42663;DHT22;44330;51.360;6.686;2023-02-14T19:58:54;5.70;41.10
42663;DHT22;44330;51.360;6.686;2023-02-14T20:03:48;5.60;41.10
42663;DHT22;44330;51.360;6.686;2023-02-14T20:06:14;5.50;40.20
42663;DHT22;44330;51.360;6.686;2023-02-14T20:08:39;5.50;38.30
42663;DHT22;44330;51.360;6.686;2023-02-14T20:11:05;5.40;39.40
42663;DHT22;44330;51.360;6.686;2023-02-14T20:13:31;5.40;40.30
42663;DHT22;44330;51.360;6.686;2023-02-14T20:15:56;5.30;43.10
42663;DHT22;44330;51.360;6.686;2023-02-14T20:18:22;5.20;46.80
42663;DHT22;44330;51.360;6.686;2023-02-14T20:20:47;5.20;48.10
42663;DHT22;44330;51.360;6.686;2023-02-14T20:23:28;5.20;50.50
42663;DHT22;44330;51.360;6.686;2023-02-14T20:25:53;5.10;52.50
42663;DHT22;44330;51.360;6.686;2023-02-14T20:28:19;5.10;53.70
42663;DHT22;44330;51.360;6.686;2023-02-14T20:30:44;5.10;54.80
42663;DHT22;44330;51.360;6.686;2023-02-14T20:33:10;5.00;56.00
42663;DHT22;44330;51.360;6.686;2023-02-14T20:35:39;5.00;56.50
42663;DHT22;44330;51.360;6.686;2023-02-14T20:38:05;5.10;56.40
42663;DHT22;44330;51.360;6.686;2023-02-14T20:40:37;5.10;54.20
42663;DHT22;44330;51.360;6.686;2023-02-14T20:43:03;5.10;53.20
42663;DHT22;44330;51.360;6.686;2023-02-14T20:45:29;5.00;52.20
42663;DHT22;44330;51.360;6.686;2023-02-14T20:47:55;5.00;52.50
42663;DHT22;44330;51.360;6.686;2023-02-14T20:50:21;5.00;52.70
42663;DHT22;44330;51.360;6.686;2023-02-14T20:52:46;4.90;53.60
42663;DHT22;44330;51.360;6.686;2023-02-14T20:55:12;5.00;57.80
42663;DHT22;44330;51.360;6.686;2023-02-14T20:57:37;5.10;60.50
42663;DHT22;44330;51.360;6.686;2023-02-14T21:00:04;5.30;56.30
42663;DHT22;44330;51.360;6.686;2023-02-14T21:02:30;5.40;50.50
42663;DHT22;44330;51.360;6.686;2023-02-14T21:04:56;5.60;45.00
42663;DHT22;44330;51.360;6.686;2023-02-14T21:07:24;5.60;40.90
42663;DHT22;44330;51.360;6.686;2023-02-14T21:09:55;5.70;38.00
42663;DHT22;44330;51.360;6.686;2023-02-14T21:12:20;5.70;37.50
42663;DHT22;44330;51.360;6.686;2023-02-14T21:14:46;5.80;31.80
42663;DHT22;44330;51.360;6.686;2023-02-14T21:17:23;5.70;29.40
42663;DHT22;44330;51.360;6.686;2023-02-14T21:19:48;5.70;28.60
42663;DHT22;44330;51.360;6.686;2023-02-14T21:22:14;5.70;32.00
42663;DHT22;44330;51.360;6.686;2023-02-14T21:24:40;5.60;33.90
42663;DHT22;44330;51.360;6.686;2023-02-14T21:27:05;5.60;32.80
42663;DHT22;44330;51.360;6.686;2023-02-14T21:29:31;5.60;34.20
42663;DHT22;44330;51.360;6.686;2023-02-14T21:31:56;5.60;33.50
42663;DHT22;44330;51.360;6.686;2023-02-14T21:34:22;5.60;31.80
42663;DHT22;44330;51.360;6.686;2023-02-14T21:36:47;5.60;28.00
42663;DHT22;44330;51.360;6.686;2023-02-14T21:39:13;5.60;27.80
42663;DHT22;44330;51.360;6.686;2023-02-14T21:41:39;5.70;27.50
42663;DHT22;44330;51.360;6.686;2023-02-14T21:44:04;5.70;26.50
42663;DHT22;44330;51.360;6.686;2023-02-14T21:46:33;5.60;27.50
42663;DHT22;44330;51.360;6.686;2023-02-14T21:49:01;5.60;26.00
42663;DHT22;44330;51.360;6.686;2023-02-14T21:51:47;5.60;26.10
42663;DHT22;44330;51.360;6.686;2023-02-14T21:54:13;5.50;28.20
42663;DHT22;44330;51.360;6.686;2023-02-14T21:56:39;5.50;29.80
42663;DHT22;44330;51.360;6.686;2023-02-14T21:59:06;5.50;29.00
42663;DHT22;44330;51.360;6.686;2023-02-14T22:01:33;5.60;26.10
42663;DHT22;44330;51.360;6.686;2023-02-14T22:03:59;5.50;26.00
42663;DHT22;44330;51.360;6.686;2023-02-14T22:06:26;5.50;26.60